Time;durP1;ratioP1;P1;durP2;ratioP2;P2;SDS_P1;SDS_P2;PMS_P1;PMS_P2;Temp;Humidity;BMP_temperature;BMP_pressure;BME280_temperature;BME280_humidity;BME280_pressure;Samples;Min_cycle;Max_cycle;Signal;HPM_P1;HPM_P2
2021/07/07 00:02:04;;;;;;;3.95;1.75;;;17.00;93.70;;;;;;6214255;23;20382;-87
2021/07/07 00:04:35;;;;;;;3.42;1.38;;;17.00;93.80;;;;;;6189506;23;20327;-87
2021/07/07 00:07:01;;;;;;;2.65;1.40;;;17.00;93.80;;;;;;6215068;23;19997;-87
2021/07/07 00:09:29;;;;;;;5.78;1.60;;;17.00;93.80;;;;;;6215102;23;20005;-87
2021/07/07 00:11:57;;;;;;;3.60;1.40;;;17.00;93.80;;;;;;6216074;23;20001;-86
2021/07/07 00:14:26;;;;;;;5.60;1.48;;;16.90;93.70;;;;;;6215295;23;19996;-88
2021/07/07 00:17:21;;;;;;;3.47;1.40;;;16.90;93.80;;;;;;6214986;23;20012;-86
2021/07/07 00:19:49;;;;;;;4.20;1.40;;;17.00;94.00;;;;;;6191229;23;20009;-87
2021/07/07 00:22:16;;;;;;;3.95;1.20;;;16.90;94.00;;;;;;6216908;23;20032;-87
2021/07/07 00:24:47;;;;;;;2.38;1.05;;;16.90;93.90;;;;;;6214276;23;20001;-88
2021/07/07 00:27:13;;;;;;;3.95;1.52;;;16.90;93.90;;;;;;6214705;23;20047;-87
2021/07/07 00:29:40;;;;;;;3.88;1.30;;;16.90;93.90;;;;;;6213277;23;20040;-87
2021/07/07 00:32:06;;;;;;;4.43;1.20;;;16.90;94.30;;;;;;6189696;23;20017;-89
2021/07/07 00:34:33;;;;;;;4.45;1.45;;;17.00;94.10;;;;;;6214408;23;20035;-87
2021/07/07 00:36:59;;;;;;;4.35;1.30;;;17.00;94.10;;;;;;6216356;23;20013;-87
2021/07/07 00:39:25;;;;;;;3.47;1.45;;;17.00;94.10;;;;;;6213698;23;20005;-86
2021/07/07 00:41:51;;;;;;;4.05;1.50;;;17.00;94.00;;;;;;6189080;23;20027;-87
2021/07/07 00:44:17;;;;;;;3.97;1.70;;;17.00;93.80;;;;;;6189091;23;20005;-87
2021/07/07 00:46:45;;;;;;;4.95;1.40;;;16.90;93.70;;;;;;6188897;23;20005;-87
2021/07/07 00:49:13;;;;;;;4.95;1.55;;;16.90;93.70;;;;;;6214667;23;20047;-86
2021/07/07 00:51:43;;;;;;;5.22;1.40;;;16.90;93.80;;;;;;6213792;23;20005;-87
2021/07/07 00:54:09;;;;;;;3.47;1.25;;;16.80;93.70;;;;;;6212691;23;20005;-87
2021/07/07 00:56:38;;;;;;;3.85;1.30;;;16.80;93.90;;;;;;6214413;23;20008;-87
2021/07/07 00:59:04;;;;;;;4.13;1.73;;;16.70;93.90;;;;;;6214145;23;20370;-86
2021/07/07 01:01:31;;;;;;;5.20;1.67;;;16.70;93.90;;;;;;6189168;23;20036;-86
2021/07/07 01:03:57;;;;;;;3.90;1.75;;;16.60;94.00;;;;;;6164318;23;20024;-87
2021/07/07 01:06:25;;;;;;;4.35;1.67;;;16.60;94.00;;;;;;6214210;23;20004;-87
2021/07/07 01:08:51;;;;;;;5.78;1.70;;;16.50;94.10;;;;;;6216092;23;20020;-86
2021/07/07 01:11:19;;;;;;;3.65;1.65;;;16.50;94.20;;;;;;6189327;23;20032;-87
2021/07/07 01:13:45;;;;;;;5.07;2.35;;;16.50;94.30;;;;;;6215933;23;20007;-87
2021/07/07 01:16:11;;;;;;;5.68;1.40;;;16.50;94.30;;;;;;6216355;23;20000;-87
2021/07/07 01:18:37;;;;;;;3.35;1.52;;;16.40;94.40;;;;;;6228205;23;20004;-87
2021/07/07 01:21:07;;;;;;;3.30;1.63;;;16.40;94.60;;;;;;6235181;23;20001;-87
2021/07/07 01:23:33;;;;;;;5.05;1.60;;;16.40;94.80;;;;;;6215713;23;20008;-88
2021/07/07 01:26:03;;;;;;;3.50;1.50;;;16.50;94.80;;;;;;6214977;23;20005;-86
2021/07/07 01:28:32;;;;;;;4.45;1.90;;;16.40;94.80;;;;;;6233013;23;19997;-88
2021/07/07 01:31:02;;;;;;;4.25;2.00;;;16.50;94.80;;;;;;6234329;23;20000;-87
2021/07/07 01:33:27;;;;;;;5.97;1.88;;;16.50;94.90;;;;;;6237207;23;19988;-87
2021/07/07 01:35:53;;;;;;;3.25;1.83;;;16.50;94.90;;;;;;6225466;23;20455;-87
2021/07/07 01:38:19;;;;;;;4.90;2.05;;;16.50;94.80;;;;;;6216367;23;20023;-86
2021/07/07 01:40:47;;;;;;;4.05;1.70;;;16.50;94.80;;;;;;6190926;23;20040;-87
2021/07/07 01:43:19;;;;;;;4.88;2.30;;;16.50;94.90;;;;;;6215461;23;20027;-85
2021/07/07 01:45:44;;;;;;;4.70;1.92;;;16.50;94.90;;;;;;6216068;23;20000;-86
2021/07/07 01:48:13;;;;;;;4.07;2.05;;;16.50;95.00;;;;;;6216149;23;20003;-87
2021/07/07 01:50:39;;;;;;;5.93;2.47;;;16.50;95.00;;;;;;6215512;23;20071;-87
2021/07/07 01:53:05;;;;;;;4.32;1.98;;;16.50;95.00;;;;;;6215397;23;20336;-87
2021/07/07 01:55:30;;;;;;;4.28;1.90;;;16.50;95.00;;;;;;6189761;23;20330;-87
2021/07/07 01:57:57;;;;;;;3.03;1.65;;;16.50;95.00;;;;;;6215294;23;20001;-86
2021/07/07 02:00:28;;;;;;;3.42;1.80;;;16.50;95.00;;;;;;6216209;23;20004;-87
2021/07/07 02:02:58;;;;;;;4.13;2.03;;;16.50;94.90;;;;;;6215410;23;20058;-87
2021/07/07 02:05:29;;;;;;;3.80;1.88;;;16.50;94.80;;;;;;6222443;23;20001;-86
2021/07/07 02:08:00;;;;;;;6.20;2.10;;;16.50;94.80;;;;;;6216595;23;19997;-86
2021/07/07 02:10:29;;;;;;;4.88;2.10;;;16.50;94.70;;;;;;6216038;23;20005;-86
2021/07/07 02:12:58;;;;;;;5.82;2.00;;;16.40;94.70;;;;;;6216266;23;20005;-85
2021/07/07 02:15:30;;;;;;;4.45;2.47;;;16.40;94.80;;;;;;6216472;23;20430;-86
2021/07/07 02:18:04;;;;;;;3.35;1.83;;;16.40;94.90;;;;;;6215933;23;20009;-86
2021/07/07 02:20:33;;;;;;;5.75;2.03;;;16.40;95.00;;;;;;6215420;23;20563;-86
2021/07/07 02:23:02;;;;;;;4.85;2.10;;;16.40;94.90;;;;;;6216712;23;20013;-85
2021/07/07 02:25:30;;;;;;;4.72;2.10;;;16.40;94.90;;;;;;6233063;23;20005;-83
2021/07/07 02:27:57;;;;;;;7.80;2.60;;;16.40;95.00;;;;;;6233642;23;20023;-83
2021/07/07 02:30:33;;;;;;;3.88;2.10;;;16.40;95.00;;;;;;6221336;23;20003;-86
2021/07/07 02:33:00;;;;;;;3.85;2.03;;;16.30;94.90;;;;;;6219322;23;20492;-86
2021/07/07 02:35:34;;;;;;;3.70;2.00;;;16.30;95.00;;;;;;6218666;23;20047;-87
2021/07/07 02:38:02;;;;;;;3.67;2.17;;;16.30;94.90;;;;;;6216253;23;20004;-86
2021/07/07 02:40:30;;;;;;;4.50;2.00;;;16.30;95.00;;;;;;6214615;23;19997;-86
2021/07/07 02:42:56;;;;;;;5.55;2.22;;;16.30;95.00;;;;;;6216470;23;20075;-86
2021/07/07 02:45:23;;;;;;;3.92;1.85;;;16.30;95.00;;;;;;6215245;23;20418;-86
2021/07/07 02:47:49;;;;;;;3.45;1.90;;;16.30;95.10;;;;;;6214123;23;20001;-86
2021/07/07 02:50:17;;;;;;;4.63;2.30;;;16.20;95.10;;;;;;6214613;23;20004;-87
2021/07/07 02:52:47;;;;;;;8.35;2.28;;;16.20;95.10;;;;;;6214201;23;20327;-86
2021/07/07 02:55:14;;;;;;;3.55;1.90;;;16.20;95.10;;;;;;6214472;23;20000;-87
2021/07/07 02:57:58;;;;;;;4.25;2.30;;;16.20;95.20;;;;;;6214283;23;20039;-87
2021/07/07 03:00:29;;;;;;;4.75;2.10;;;16.20;95.20;;;;;;6214670;23;20753;-86
2021/07/07 03:03:33;;;;;;;3.95;2.40;;;16.20;95.30;;;;;;6213916;23;20016;-87
2021/07/07 03:06:01;;;;;;;5.22;2.30;;;16.20;95.40;;;;;;6209074;23;20004;-86
2021/07/07 03:08:40;;;;;;;5.05;2.15;;;16.20;95.50;;;;;;6215841;23;20040;-88
2021/07/07 03:11:06;;;;;;;5.60;2.47;;;16.20;96.10;;;;;;6213888;23;20008;-87
2021/07/07 03:13:32;;;;;;;4.13;2.40;;;16.20;96.60;;;;;;6215861;23;20327;-86
2021/07/07 03:15:57;;;;;;;4.30;2.30;;;16.20;96.60;;;;;;6212827;23;20131;-87
2021/07/07 03:18:26;;;;;;;6.55;2.50;;;16.10;96.70;;;;;;6213329;23;20055;-87
2021/07/07 03:20:53;;;;;;;5.63;2.47;;;16.10;96.80;;;;;;6188422;23;20082;-86
2021/07/07 03:23:21;;;;;;;6.93;2.28;;;16.10;96.70;;;;;;6213590;23;20017;-87
2021/07/07 03:25:49;;;;;;;3.45;2.10;;;16.10;96.80;;;;;;6214008;23;20308;-86
2021/07/07 03:28:16;;;;;;;5.43;2.47;;;16.10;96.70;;;;;;6213552;23;20111;-87
2021/07/07 03:30:42;;;;;;;5.57;2.30;;;16.10;96.80;;;;;;6214898;23;20000;-87
2021/07/07 03:33:08;;;;;;;3.30;2.20;;;16.10;96.70;;;;;;6213709;23;20019;-87
2021/07/07 03:35:37;;;;;;;5.55;2.63;;;16.10;96.80;;;;;;6214184;23;20066;-88
2021/07/07 03:38:04;;;;;;;5.18;2.53;;;16.10;96.80;;;;;;6213902;23;20004;-87
2021/07/07 03:40:31;;;;;;;5.35;2.40;;;16.00;96.90;;;;;;6213424;23;20435;-87
2021/07/07 03:43:00;;;;;;;5.05;2.30;;;16.00;97.40;;;;;;6189266;23;20430;-87
2021/07/07 03:45:28;;;;;;;5.82;2.80;;;16.00;97.40;;;;;;6215986;23;20040;-87
2021/07/07 03:47:57;;;;;;;6.85;3.05;;;16.00;97.40;;;;;;6213991;23;20020;-87
2021/07/07 03:50:24;;;;;;;4.07;2.38;;;16.00;97.50;;;;;;6214930;23;20001;-87
2021/07/07 03:52:52;;;;;;;7.45;2.67;;;16.00;97.70;;;;;;6218610;23;20365;-85
2021/07/07 03:55:20;;;;;;;3.83;2.42;;;16.00;97.60;;;;;;6193361;23;20009;-86
2021/07/07 03:57:46;;;;;;;7.80;2.53;;;16.00;97.70;;;;;;6213771;23;20040;-86
2021/07/07 04:00:16;;;;;;;5.65;2.70;;;16.00;97.80;;;;;;6215868;23;20369;-86
2021/07/07 04:02:45;;;;;;;7.80;2.88;;;16.00;97.70;;;;;;6216188;23;20004;-86
2021/07/07 04:05:11;;;;;;;4.25;2.40;;;16.00;97.80;;;;;;6215607;23;20004;-86
2021/07/07 04:07:40;;;;;;;4.63;2.20;;;16.00;97.90;;;;;;6212989;23;20001;-86
2021/07/07 04:10:27;;;;;;;5.43;2.60;;;15.90;97.70;;;;;;6216694;23;19997;-86
2021/07/07 04:12:56;;;;;;;6.50;2.70;;;15.90;97.70;;;;;;6194609;23;20036;-86
2021/07/07 04:15:22;;;;;;;6.03;3.00;;;15.90;97.60;;;;;;6218325;23;20001;-86
2021/07/07 04:17:48;;;;;;;7.20;2.88;;;15.90;97.40;;;;;;6215346;23;20088;-86
2021/07/07 04:20:20;;;;;;;5.82;2.70;;;16.00;97.40;;;;;;6217208;23;20084;-86
2021/07/07 04:22:47;;;;;;;7.53;3.13;;;16.00;97.40;;;;;;6214459;23;20013;-86
2021/07/07 04:25:23;;;;;;;5.40;2.88;;;16.00;97.40;;;;;;6216248;23;20083;-87
2021/07/07 04:27:48;;;;;;;8.60;3.20;;;16.00;97.30;;;;;;6215694;23;20104;-85
2021/07/07 04:30:16;;;;;;;3.95;2.63;;;15.90;97.30;;;;;;6217492;23;20320;-85
2021/07/07 04:32:43;;;;;;;5.43;2.55;;;15.90;97.30;;;;;;6215986;23;20013;-86
2021/07/07 04:35:10;;;;;;;4.10;2.40;;;15.90;97.30;;;;;;6216537;23;20419;-86
2021/07/07 04:37:36;;;;;;;4.72;2.60;;;15.90;97.30;;;;;;6220342;23;20011;-88
2021/07/07 04:40:05;;;;;;;4.68;2.70;;;15.90;97.20;;;;;;6194831;23;20004;-86
2021/07/07 04:42:31;;;;;;;5.65;2.65;;;15.90;97.30;;;;;;6219131;23;20040;-85
2021/07/07 04:45:03;;;;;;;5.88;3.00;;;15.90;97.30;;;;;;6219301;23;20046;-85
2021/07/07 04:47:35;;;;;;;6.20;2.53;;;15.90;97.30;;;;;;6219680;23;20008;-84
2021/07/07 04:50:13;;;;;;;9.07;3.00;;;15.90;97.30;;;;;;6196166;23;20004;-85
2021/07/07 04:52:39;;;;;;;6.97;2.83;;;15.90;97.40;;;;;;6194331;23;20015;-85
2021/07/07 04:55:08;;;;;;;4.95;2.42;;;15.90;97.30;;;;;;6194904;23;20019;-85
2021/07/07 04:57:42;;;;;;;8.90;3.20;;;15.90;97.30;;;;;;6195027;23;20074;-87
2021/07/07 05:00:16;;;;;;;6.38;3.10;;;15.90;97.30;;;;;;6222476;23;20003;-86
2021/07/07 05:02:44;;;;;;;4.35;2.17;;;16.00;97.40;;;;;;6233492;23;20008;-89
2021/07/07 05:05:14;;;;;;;6.70;2.60;;;16.00;97.40;;;;;;6214226;23;19996;-90
2021/07/07 05:07:47;;;;;;;4.53;2.80;;;16.00;97.40;;;;;;6245480;23;19996;-87
2021/07/07 05:10:14;;;;;;;5.78;3.03;;;16.00;97.50;;;;;;6244299;23;20000;-86
2021/07/07 05:12:40;;;;;;;6.55;2.75;;;16.00;97.60;;;;;;6238206;23;20016;-88
2021/07/07 05:15:15;;;;;;;5.18;2.65;;;16.00;97.50;;;;;;6217067;23;20023;-89
2021/07/07 05:17:44;;;;;;;4.43;2.30;;;16.10;97.50;;;;;;6241225;23;20000;-87
2021/07/07 05:20:17;;;;;;;6.25;2.88;;;16.10;97.50;;;;;;6223666;23;20437;-86
2021/07/07 05:23:09;;;;;;;3.97;2.30;;;16.10;97.50;;;;;;6224056;23;20035;-93
2021/07/07 05:25:45;;;;;;;6.63;2.63;;;16.10;97.50;;;;;;6213069;23;20086;-88
2021/07/07 05:28:12;;;;;;;5.32;2.25;;;16.20;97.50;;;;;;6194829;23;20007;-85
2021/07/07 05:30:38;;;;;;;5.25;2.72;;;16.20;97.50;;;;;;6218428;23;20004;-87
2021/07/07 05:33:08;;;;;;;8.18;2.70;;;16.20;97.50;;;;;;6245430;23;20011;-84
2021/07/07 05:35:34;;;;;;;8.30;2.97;;;16.30;97.50;;;;;;6213524;23;20346;-86
2021/07/07 05:38:00;;;;;;;6.85;1.98;;;16.30;97.50;;;;;;6213960;23;20373;-85
2021/07/07 05:40:26;;;;;;;5.60;2.53;;;16.30;97.40;;;;;;6213902;23;20087;-86
2021/07/07 05:42:57;;;;;;;3.40;2.25;;;16.40;97.40;;;;;;6189033;23;20312;-85
2021/07/07 05:45:25;;;;;;;11.23;2.83;;;16.40;97.40;;;;;;6214554;23;20036;-84
2021/07/07 05:47:51;;;;;;;6.00;2.42;;;16.40;97.40;;;;;;6212724;23;20007;-85
2021/07/07 05:50:18;;;;;;;5.18;2.92;;;16.40;97.40;;;;;;6214147;23;20011;-85
2021/07/07 05:52:47;;;;;;;5.68;2.53;;;16.50;97.40;;;;;;6214344;23;20004;-85
2021/07/07 05:55:16;;;;;;;6.70;2.97;;;16.50;97.40;;;;;;6214404;23;20028;-85
2021/07/07 05:57:44;;;;;;;7.25;2.30;;;16.60;97.40;;;;;;6214586;23;20012;-85
2021/07/07 06:00:16;;;;;;;9.27;2.78;;;16.60;97.40;;;;;;6216243;23;20004;-84
2021/07/07 06:02:45;;;;;;;5.85;2.38;;;16.60;97.40;;;;;;6214315;23;20005;-85
2021/07/07 06:05:15;;;;;;;7.40;2.70;;;16.60;97.30;;;;;;6213989;23;20032;-85
2021/07/07 06:07:43;;;;;;;5.88;2.70;;;16.60;97.30;;;;;;6214334;23;20419;-86
2021/07/07 06:10:16;;;;;;;7.70;2.75;;;16.60;97.30;;;;;;6213827;23;20001;-84
2021/07/07 06:12:47;;;;;;;9.55;2.97;;;16.60;97.30;;;;;;6215769;23;20001;-85
2021/07/07 06:15:24;;;;;;;5.25;2.50;;;16.60;97.30;;;;;;6188806;23;20024;-85
2021/07/07 06:17:50;;;;;;;4.20;2.47;;;16.70;97.30;;;;;;6213757;23;20009;-85
2021/07/07 06:20:16;;;;;;;6.00;2.63;;;16.70;97.30;;;;;;6214503;23;20326;-86
2021/07/07 06:22:46;;;;;;;6.72;3.15;;;16.70;97.30;;;;;;6215720;23;20009;-86
2021/07/07 06:25:18;;;;;;;7.95;3.20;;;16.70;97.30;;;;;;6213754;23;20407;-85
2021/07/07 06:27:44;;;;;;;7.30;3.03;;;16.70;97.30;;;;;;6190034;23;20019;-85
2021/07/07 06:30:25;;;;;;;8.93;2.90;;;16.80;97.30;;;;;;6189357;23;20074;-85
2021/07/07 06:32:58;;;;;;;5.30;2.83;;;16.80;97.40;;;;;;6213475;23;20005;-86
2021/07/07 06:35:30;;;;;;;5.55;3.05;;;16.80;97.20;;;;;;6214081;23;20034;-86
2021/07/07 06:37:56;;;;;;;5.80;2.80;;;16.90;97.30;;;;;;6213881;23;20423;-85
2021/07/07 06:40:22;;;;;;;7.32;3.88;;;16.90;97.10;;;;;;6189729;23;20050;-86
2021/07/07 06:42:48;;;;;;;7.78;3.95;;;16.90;97.10;;;;;;6189410;23;20013;-86
2021/07/07 06:45:15;;;;;;;7.40;3.40;;;16.90;97.00;;;;;;6213909;23;20083;-86
2021/07/07 06:47:44;;;;;;;5.22;3.13;;;16.90;96.90;;;;;;6189871;23;20502;-85
2021/07/07 06:50:17;;;;;;;6.40;3.20;;;17.00;97.00;;;;;;6213625;23;20444;-85
2021/07/07 06:52:43;;;;;;;9.38;3.88;;;17.00;97.00;;;;;;6214502;23;20009;-85
2021/07/07 06:55:15;;;;;;;6.75;3.40;;;17.00;96.90;;;;;;6214097;23;20047;-85
2021/07/07 06:57:44;;;;;;;7.05;3.38;;;17.00;97.00;;;;;;6214782;23;20005;-86
2021/07/07 07:00:23;;;;;;;8.75;3.15;;;17.10;96.90;;;;;;6190482;23;20019;-86
2021/07/07 07:02:49;;;;;;;7.85;3.70;;;17.10;97.00;;;;;;6208646;23;20426;-84
2021/07/07 07:05:19;;;;;;;6.65;3.55;;;17.20;97.20;;;;;;6209982;23;20000;-84
2021/07/07 07:08:19;;;;;;;8.10;3.08;;;17.30;97.30;;;;;;6215492;23;20001;-89
2021/07/07 07:11:10;;;;;;;9.80;3.60;;;17.40;97.00;;;;;;6200828;23;20008;-90
2021/07/07 07:14:19;;;;;;;9.65;3.47;;;17.50;96.90;;;;;;6231830;23;20004;-87
2021/07/07 07:16:50;;;;;;;8.43;3.85;;;17.60;96.70;;;;;;6209940;23;20001;-86
2021/07/07 07:19:45;;;;;;;10.80;3.85;;;17.60;96.70;;;;;;6219064;23;20003;-88
2021/07/07 07:43:27;;;;;;;9.88;2.80;;;18.30;94.90;;;;;;6045932;23;20048;-85
2021/07/07 07:46:02;;;;;;;7.05;2.58;;;18.40;94.30;;;;;;6035373;23;20011;-85
2021/07/07 07:48:32;;;;;;;8.32;2.95;;;18.40;94.50;;;;;;6035704;23;20007;-86
2021/07/07 07:51:07;;;;;;;10.07;3.00;;;18.50;94.50;;;;;;6035997;23;20434;-87
2021/07/07 07:54:04;;;;;;;7.50;2.85;;;18.60;94.70;;;;;;6036637;23;20126;-87
2021/07/07 07:57:03;;;;;;;;;;;;;;;;;;;;;
2021/07/07 08:10:02;;;;;;;5.95;2.30;;;19.20;93.00;;;;;;6022557;23;20058;-93
2021/07/07 08:12:28;;;;;;;6.50;2.40;;;19.30;93.00;;;;;;6012149;23;20007;-83
2021/07/07 08:14:57;;;;;;;6.65;2.20;;;19.40;91.70;;;;;;6110242;23;20009;-83
2021/07/07 08:17:25;;;;;;;10.05;2.70;;;19.50;91.90;;;;;;6186703;23;20012;-85
2021/07/07 08:19:51;;;;;;;8.60;2.40;;;19.60;91.00;;;;;;6186854;23;20127;-86
2021/07/07 08:22:26;;;;;;;6.32;2.40;;;19.70;91.30;;;;;;6186843;23;20028;-87
2021/07/07 08:24:54;;;;;;;5.57;2.10;;;19.80;91.00;;;;;;6187498;23;20012;-86
2021/07/07 08:27:22;;;;;;;10.35;2.88;;;19.80;90.80;;;;;;6162291;23;20013;-86
2021/07/07 08:30:29;;;;;;;;;;;;;;;;;;;;;
2021/07/07 08:33:05;;;;;;;5.63;2.03;;;20.00;90.50;;;;;;6215051;23;20076;-88
2021/07/07 08:36:22;;;;;;;;;;;;;;;;;;;;;
2021/07/07 08:39:01;;;;;;;5.82;2.08;;;20.20;90.50;;;;;;6179619;23;20108;-89
2021/07/07 08:45:03;;;;;;;5.57;1.75;;;20.40;89.30;;;;;;6171926;23;20028;-90
2021/07/07 08:47:29;;;;;;;6.63;2.20;;;20.50;87.70;;;;;;6208031;23;20017;-87
2021/07/07 08:49:55;;;;;;;7.13;2.10;;;20.50;87.10;;;;;;6225273;23;20001;-85
2021/07/07 08:52:21;;;;;;;5.90;1.90;;;20.50;87.10;;;;;;6242529;23;19997;-87
2021/07/07 08:54:48;;;;;;;5.75;1.95;;;20.60;87.80;;;;;;6234011;23;20456;-86
2021/07/07 08:57:21;;;;;;;3.55;1.50;;;20.60;88.40;;;;;;6231991;23;20012;-84
2021/07/07 08:59:47;;;;;;;5.80;2.00;;;20.70;88.50;;;;;;6242034;23;20005;-84
2021/07/07 09:02:13;;;;;;;8.23;1.92;;;20.80;87.00;;;;;;6198462;23;20549;-89
2021/07/07 09:04:41;;;;;;;8.18;2.25;;;20.90;86.20;;;;;;6215010;23;20005;-79
2021/07/07 09:07:21;;;;;;;6.85;2.25;;;21.00;85.90;;;;;;6213834;23;20001;-86
2021/07/07 09:09:50;;;;;;;7.13;2.55;;;21.00;84.50;;;;;;6214924;23;20437;-90
2021/07/07 09:12:29;;;;;;;5.68;1.77;;;21.10;83.80;;;;;;6215982;23;20004;-91
2021/07/07 09:15:07;;;;;;;6.60;2.08;;;21.10;84.00;;;;;;6216535;23;19997;-85
2021/07/07 09:17:41;;;;;;;4.63;1.55;;;21.20;82.90;;;;;;6214144;23;20061;-80
2021/07/07 09:20:36;;;;;;;4.47;1.80;;;21.20;83.40;;;;;;6213865;23;20241;-89
2021/07/07 09:23:34;;;;;;;8.85;2.58;;;21.30;82.70;;;;;;6214543;23;20079;-87
2021/07/07 09:26:03;;;;;;;4.72;1.90;;;21.30;82.70;;;;;;6153472;23;20020;-87
2021/07/07 09:28:33;;;;;;;5.75;1.90;;;21.30;83.30;;;;;;6216444;23;20417;-87
2021/07/07 09:31:07;;;;;;;5.97;1.80;;;21.40;82.90;;;;;;6216182;23;20200;-89
2021/07/07 09:33:45;;;;;;;8.75;1.80;;;21.40;82.40;;;;;;6215001;23;20051;-88
2021/07/07 09:36:21;;;;;;;6.47;1.85;;;21.50;79.00;;;;;;6213152;23;20047;-88
2021/07/07 09:38:49;;;;;;;5.60;1.63;;;21.50;80.00;;;;;;6189163;23;20016;-87
2021/07/07 09:41:22;;;;;;;7.43;2.38;;;21.50;79.80;;;;;;6213093;23;20012;-87
2021/07/07 09:43:55;;;;;;;6.43;2.00;;;21.40;80.10;;;;;;6216369;23;20005;-88
2021/07/07 09:46:23;;;;;;;4.68;1.63;;;21.40;80.10;;;;;;6214267;23;20015;-87
2021/07/07 09:48:51;;;;;;;5.43;1.67;;;21.40;79.30;;;;;;6214517;23;20344;-86
2021/07/07 09:51:17;;;;;;;6.65;1.88;;;21.30;79.90;;;;;;6215227;23;20000;-86
2021/07/07 09:53:52;;;;;;;5.60;1.60;;;21.30;80.50;;;;;;6214637;23;20008;-87
2021/07/07 09:56:18;;;;;;;7.30;1.90;;;21.30;79.40;;;;;;6168151;23;20116;-86
2021/07/07 09:58:44;;;;;;;4.35;1.80;;;21.30;78.60;;;;;;6214020;23;20036;-86
2021/07/07 10:01:10;;;;;;;7.30;2.08;;;21.30;79.30;;;;;;6214064;23;20012;-86
2021/07/07 10:03:56;;;;;;;6.85;1.90;;;21.30;79.80;;;;;;6214015;23;20000;-86
2021/07/07 10:06:26;;;;;;;6.57;1.75;;;21.40;80.90;;;;;;6191103;23;20020;-85
2021/07/07 10:09:04;;;;;;;5.90;1.80;;;21.50;81.80;;;;;;6214118;23;20373;-88
2021/07/07 10:11:37;;;;;;;6.43;1.80;;;21.50;79.00;;;;;;6190704;23;20024;-87
2021/07/07 10:14:03;;;;;;;7.45;1.98;;;21.50;79.30;;;;;;6213257;23;20087;-87
2021/07/07 10:16:31;;;;;;;11.05;3.60;;;21.60;79.10;;;;;;6213915;23;20033;-88
2021/07/07 10:18:58;;;;;;;9.60;2.45;;;21.60;80.10;;;;;;6213900;23;20071;-87
2021/07/07 10:21:38;;;;;;;5.68;2.05;;;21.70;78.80;;;;;;6214084;23;19996;-87
2021/07/07 10:24:04;;;;;;;4.43;1.35;;;21.80;76.10;;;;;;6213646;23;20453;-87
2021/07/07 10:26:42;;;;;;;;;;;;;;;;;;;;;
2021/07/07 10:29:20;;;;;;;6.30;1.77;;;21.80;77.10;;;;;;6213761;23;20075;-89
2021/07/07 10:32:00;;;;;;;5.97;1.77;;;21.90;78.00;;;;;;6213568;23;20001;-86
2021/07/07 10:34:28;;;;;;;3.63;1.60;;;21.90;76.10;;;;;;6214362;23;20032;-85
2021/07/07 10:37:14;;;;;;;5.82;1.55;;;21.90;76.20;;;;;;6213545;23;20339;-87
2021/07/07 10:39:40;;;;;;;5.05;1.75;;;21.80;75.30;;;;;;6189094;23;20013;-87
2021/07/07 10:42:07;;;;;;;6.35;1.88;;;21.80;74.40;;;;;;6213153;23;20024;-86
2021/07/07 10:44:38;;;;;;;4.43;1.58;;;21.80;75.90;;;;;;6213684;23;20011;-87
2021/07/07 10:47:36;;;;;;;4.95;1.70;;;21.80;76.40;;;;;;6214157;23;20001;-89
2021/07/07 10:50:05;;;;;;;4.95;1.77;;;21.90;75.50;;;;;;6207621;23;20004;-89
2021/07/07 10:52:39;;;;;;;4.55;1.60;;;22.00;75.70;;;;;;6214171;23;20058;-86
2021/07/07 10:55:08;;;;;;;6.78;2.20;;;22.00;76.40;;;;;;6214194;23;20007;-86
2021/07/07 10:57:35;;;;;;;4.05;1.50;;;22.10;76.30;;;;;;6208561;23;20054;-88
2021/07/07 11:00:07;;;;;;;7.95;1.90;;;22.10;77.10;;;;;;6210450;23;20083;-87
2021/07/07 11:03:19;;;;;;;4.82;1.67;;;22.10;77.10;;;;;;6204263;23;20072;-86
2021/07/07 11:05:45;;;;;;;6.80;2.00;;;22.20;76.60;;;;;;6213866;23;20004;-86
2021/07/07 11:08:22;;;;;;;6.18;2.13;;;22.20;75.80;;;;;;6213770;23;20443;-88
2021/07/07 11:10:53;;;;;;;9.43;1.85;;;22.20;75.90;;;;;;6214152;23;20005;-86
2021/07/07 11:13:19;;;;;;;6.82;2.17;;;22.20;76.90;;;;;;6213842;23;20001;-86
2021/07/07 11:15:51;;;;;;;7.47;1.63;;;22.10;75.50;;;;;;6214348;23;20008;-85
2021/07/07 11:18:24;;;;;;;5.05;1.50;;;22.10;75.70;;;;;;6213123;23;20083;-88
2021/07/07 11:21:13;;;;;;;;;;;;;;;;;;;;;
2021/07/07 11:23:40;;;;;;;5.55;1.60;;;22.10;76.00;;;;;;6214914;23;20080;-86
2021/07/07 11:26:07;;;;;;;4.53;1.60;;;22.00;76.00;;;;;;6188329;23;20055;-86
2021/07/07 11:28:41;;;;;;;4.93;1.60;;;22.10;77.50;;;;;;6214510;23;20011;-86
2021/07/07 11:31:07;;;;;;;5.95;2.10;;;22.10;78.10;;;;;;6214113;23;20035;-86
2021/07/07 11:33:36;;;;;;;7.18;1.85;;;22.20;76.90;;;;;;6214334;23;20103;-86
2021/07/07 11:36:02;;;;;;;5.65;1.95;;;22.20;76.10;;;;;;6214033;23;20036;-86
2021/07/07 11:38:34;;;;;;;4.45;1.50;;;22.20;74.70;;;;;;6213312;23;20040;-88
2021/07/07 11:41:00;;;;;;;4.65;1.52;;;22.20;73.80;;;;;;6213636;23;20016;-87
2021/07/07 11:43:58;;;;;;;4.70;1.48;;;22.20;74.40;;;;;;6192908;23;20044;-86
2021/07/07 11:46:30;;;;;;;5.40;1.35;;;22.30;75.20;;;;;;6209319;23;20004;-86
2021/07/07 11:49:11;;;;;;;6.32;1.70;;;22.30;74.70;;;;;;6221812;23;20012;-87
2021/07/07 11:51:43;;;;;;;4.60;1.65;;;22.30;75.10;;;;;;6221697;23;20001;-88
2021/07/07 11:54:11;;;;;;;6.43;2.00;;;22.40;75.60;;;;;;6223707;23;20197;-87
2021/07/07 11:56:39;;;;;;;6.53;2.00;;;22.40;75.90;;;;;;6231338;23;19996;-85
2021/07/07 11:59:10;;;;;;;4.18;1.40;;;22.50;75.40;;;;;;6230505;23;20015;-87
2021/07/07 12:01:40;;;;;;;3.53;1.75;;;22.50;76.60;;;;;;6221871;23;20000;-88
2021/07/07 12:04:07;;;;;;;3.55;1.55;;;22.60;75.50;;;;;;6222081;23;20082;-86
2021/07/07 12:06:44;;;;;;;3.33;1.73;;;22.60;75.20;;;;;;6222091;23;20000;-86
2021/07/07 12:09:16;;;;;;;3.92;1.63;;;22.70;75.20;;;;;;6220470;23;20091;-87
2021/07/07 12:12:12;;;;;;;4.53;1.55;;;22.80;74.90;;;;;;6220616;23;20004;-87
2021/07/07 12:14:43;;;;;;;4.97;1.63;;;22.90;74.50;;;;;;6188380;23;20087;-87
2021/07/07 12:17:21;;;;;;;;;;;;;;;;;;;;;
2021/07/07 12:19:50;;;;;;;2.63;1.15;;;23.10;72.70;;;;;;6246298;23;20345;-87
2021/07/07 12:25:42;;;;;;;3.42;1.30;;;23.20;72.70;;;;;;6248312;23;20383;-88
2021/07/07 12:28:09;;;;;;;4.80;1.52;;;23.30;69.90;;;;;;6233407;23;20024;-87
2021/07/07 12:30:45;;;;;;;4.22;1.65;;;23.30;69.80;;;;;;6216762;23;20007;-87
2021/07/07 12:33:16;;;;;;;4.45;1.70;;;23.40;69.90;;;;;;6223197;22;20048;-87
2021/07/07 12:35:51;;;;;;;4.35;1.33;;;23.40;69.20;;;;;;6247523;22;20004;-88
2021/07/07 12:38:19;;;;;;;4.22;1.50;;;23.40;70.10;;;;;;6267913;23;20076;-89
2021/07/07 12:41:12;;;;;;;3.97;1.67;;;23.40;70.60;;;;;;6240290;23;20003;-88
2021/07/07 12:43:54;;;;;;;6.47;2.47;;;23.50;71.40;;;;;;6232092;23;20500;-88
2021/07/07 12:46:42;;;;;;;7.10;2.05;;;23.50;71.90;;;;;;6213492;23;20105;-89
2021/07/07 12:49:10;;;;;;;2.70;1.50;;;23.40;70.80;;;;;;6227032;23;20000;-88
2021/07/07 12:51:38;;;;;;;4.82;1.70;;;23.50;71.20;;;;;;6194802;23;20054;-87
2021/07/07 12:54:33;;;;;;;3.45;1.73;;;23.50;69.40;;;;;;6193473;23;20008;-86
2021/07/07 12:57:26;;;;;;;5.07;1.52;;;23.50;70.30;;;;;;6218110;23;20051;-88
2021/07/07 12:59:57;;;;;;;3.60;1.48;;;23.40;70.20;;;;;;6192439;23;20048;-87
2021/07/07 13:02:30;;;;;;;4.10;1.30;;;23.40;70.70;;;;;;6168056;23;20418;-87
2021/07/07 13:05:14;;;;;;;4.20;1.40;;;23.40;70.20;;;;;;6224365;23;19997;-88
2021/07/07 13:07:48;;;;;;;3.58;1.40;;;23.40;71.10;;;;;;6244942;23;20095;-87
2021/07/07 13:10:50;;;;;;;5.25;1.58;;;23.40;71.80;;;;;;6193685;23;20015;-88
2021/07/07 13:13:43;;;;;;;4.45;1.60;;;23.50;70.00;;;;;;6217826;23;20008;-87
2021/07/07 13:16:22;;;;;;;4.47;1.52;;;23.50;70.00;;;;;;6218322;23;20000;-90
2021/07/07 13:19:46;;;;;;;5.45;1.80;;;23.60;68.40;;;;;;6217911;23;20390;-88
2021/07/07 13:22:34;;;;;;;4.68;1.55;;;23.60;68.80;;;;;;6217425;23;20000;-88
2021/07/07 13:25:09;;;;;;;3.97;1.50;;;23.70;68.80;;;;;;6218426;23;20027;-88
2021/07/07 13:27:38;;;;;;;5.38;1.55;;;23.90;68.60;;;;;;6171411;23;20033;-87
2021/07/07 13:30:06;;;;;;;2.72;1.23;;;24.00;67.10;;;;;;6194747;23;20730;-87
2021/07/07 13:32:55;;;;;;;3.35;1.50;;;24.10;66.80;;;;;;6194725;23;20009;-86
2021/07/07 13:35:23;;;;;;;4.05;1.40;;;24.10;67.50;;;;;;6220051;23;20083;-87
2021/07/07 13:37:56;;;;;;;4.25;1.38;;;24.20;65.50;;;;;;6194140;23;20011;-87
2021/07/07 13:40:31;;;;;;;2.97;1.30;;;24.30;64.90;;;;;;6219438;23;20007;-89
2021/07/07 13:42:57;;;;;;;3.47;1.42;;;24.30;63.40;;;;;;6188215;23;20435;-87
2021/07/07 13:45:26;;;;;;;4.30;1.67;;;24.20;63.90;;;;;;6214167;23;20031;-90
2021/07/07 13:48:04;;;;;;;2.70;1.30;;;24.20;64.60;;;;;;6190306;23;20084;-88
2021/07/07 13:50:30;;;;;;;2.13;1.20;;;24.20;65.70;;;;;;6192005;23;20019;-87
2021/07/07 13:53:13;;;;;;;2.65;1.40;;;24.20;64.60;;;;;;6191040;23;20015;-87
2021/07/07 13:59:03;;;;;;;2.85;1.58;;;24.20;63.80;;;;;;6214050;23;20013;-87
2021/07/07 14:01:34;;;;;;;3.20;1.65;;;24.10;63.20;;;;;;6216771;23;20016;-88